sensor_id;sensor_type;location;lat;lon;timestamp;P1;durP1;ratioP1;P2;durP2;ratioP2
14688;SDS011;7432;48.728;9.154;2023-06-22T00:00:51;11.02;;;10.07;;
14688;SDS011;7432;48.728;9.154;2023-06-22T00:03:19;11.57;;;10.45;;
14688;SDS011;7432;48.728;9.154;2023-06-22T00:05:47;11.00;;;10.10;;
14688;SDS011;7432;48.728;9.154;2023-06-22T00:08:13;11.07;;;10.18;;
14688;SDS011;7432;48.728;9.154;2023-06-22T00:10:40;10.98;;;9.93;;
14688;SDS011;7432;48.728;9.154;2023-06-22T00:13:07;11.23;;;10.23;;
14688;SDS011;7432;48.728;9.154;2023-06-22T00:15:36;11.32;;;10.23;;
14688;SDS011;7432;48.728;9.154;2023-06-22T00:18:03;11.75;;;10.73;;
14688;SDS011;7432;48.728;9.154;2023-06-22T00:20:30;11.65;;;10.52;;
14688;SDS011;7432;48.728;9.154;2023-06-22T00:22:58;11.82;;;10.73;;
14688;SDS011;7432;48.728;9.154;2023-06-22T00:25:25;11.55;;;10.45;;
14688;SDS011;7432;48.728;9.154;2023-06-22T00:27:52;10.95;;;9.95;;
14688;SDS011;7432;48.728;9.154;2023-06-22T00:30:18;10.75;;;9.77;;
14688;SDS011;7432;48.728;9.154;2023-06-22T00:32:46;11.82;;;10.73;;
14688;SDS011;7432;48.728;9.154;2023-06-22T00:35:12;11.10;;;9.63;;
14688;SDS011;7432;48.728;9.154;2023-06-22T00:37:39;11.43;;;10.32;;
14688;SDS011;7432;48.728;9.154;2023-06-22T00:40:07;11.30;;;10.23;;
14688;SDS011;7432;48.728;9.154;2023-06-22T00:42:37;12.32;;;11.02;;
14688;SDS011;7432;48.728;9.154;2023-06-22T00:45:04;11.43;;;10.32;;
14688;SDS011;7432;48.728;9.154;2023-06-22T00:47:31;11.18;;;10.15;;
14688;SDS011;7432;48.728;9.154;2023-06-22T00:50:01;10.90;;;9.85;;
14688;SDS011;7432;48.728;9.154;2023-06-22T00:52:28;11.15;;;10.25;;
14688;SDS011;7432;48.728;9.154;2023-06-22T00:54:58;11.43;;;10.43;;
14688;SDS011;7432;48.728;9.154;2023-06-22T00:57:26;11.02;;;9.93;;
14688;SDS011;7432;48.728;9.154;2023-06-22T00:59:53;11.93;;;10.80;;
14688;SDS011;7432;48.728;9.154;2023-06-22T01:02:20;12.00;;;10.80;;
14688;SDS011;7432;48.728;9.154;2023-06-22T01:04:46;10.75;;;9.73;;
14688;SDS011;7432;48.728;9.154;2023-06-22T01:07:17;11.05;;;10.10;;
14688;SDS011;7432;48.728;9.154;2023-06-22T01:09:49;11.18;;;10.07;;
14688;SDS011;7432;48.728;9.154;2023-06-22T01:12:30;10.55;;;9.55;;
14688;SDS011;7432;48.728;9.154;2023-06-22T01:15:02;10.38;;;9.40;;
14688;SDS011;7432;48.728;9.154;2023-06-22T01:17:34;10.57;;;9.63;;
14688;SDS011;7432;48.728;9.154;2023-06-22T01:20:01;10.45;;;9.55;;
14688;SDS011;7432;48.728;9.154;2023-06-22T01:22:33;12.13;;;9.98;;
14688;SDS011;7432;48.728;9.154;2023-06-22T01:25:10;12.55;;;10.68;;
14688;SDS011;7432;48.728;9.154;2023-06-22T01:27:47;10.70;;;9.80;;
14688;SDS011;7432;48.728;9.154;2023-06-22T01:30:20;11.73;;;10.63;;
14688;SDS011;7432;48.728;9.154;2023-06-22T01:32:47;11.20;;;10.10;;
14688;SDS011;7432;48.728;9.154;2023-06-22T01:35:14;11.80;;;10.70;;
14688;SDS011;7432;48.728;9.154;2023-06-22T01:37:41;11.88;;;10.45;;
14688;SDS011;7432;48.728;9.154;2023-06-22T01:40:08;11.50;;;10.48;;
14688;SDS011;7432;48.728;9.154;2023-06-22T01:42:36;11.25;;;10.20;;
14688;SDS011;7432;48.728;9.154;2023-06-22T01:45:03;10.57;;;9.68;;
14688;SDS011;7432;48.728;9.154;2023-06-22T01:47:32;11.73;;;10.60;;
14688;SDS011;7432;48.728;9.154;2023-06-22T01:49:59;12.38;;;10.15;;
14688;SDS011;7432;48.728;9.154;2023-06-22T01:52:26;10.80;;;9.80;;
14688;SDS011;7432;48.728;9.154;2023-06-22T01:54:53;10.98;;;10.02;;
14688;SDS011;7432;48.728;9.154;2023-06-22T01:57:19;10.88;;;10.00;;
14688;SDS011;7432;48.728;9.154;2023-06-22T01:59:48;10.20;;;9.38;;
14688;SDS011;7432;48.728;9.154;2023-06-22T02:02:21;10.93;;;10.02;;
14688;SDS011;7432;48.728;9.154;2023-06-22T02:04:56;10.27;;;9.38;;
14688;SDS011;7432;48.728;9.154;2023-06-22T02:07:26;11.65;;;10.55;;
14688;SDS011;7432;48.728;9.154;2023-06-22T02:09:58;11.57;;;10.00;;
14688;SDS011;7432;48.728;9.154;2023-06-22T02:12:26;11.85;;;10.75;;
14688;SDS011;7432;48.728;9.154;2023-06-22T02:14:54;11.70;;;10.38;;
14688;SDS011;7432;48.728;9.154;2023-06-22T02:17:21;11.43;;;10.25;;
14688;SDS011;7432;48.728;9.154;2023-06-22T02:19:47;11.02;;;10.02;;
14688;SDS011;7432;48.728;9.154;2023-06-22T02:22:15;12.43;;;11.13;;
14688;SDS011;7432;48.728;9.154;2023-06-22T02:24:42;12.07;;;10.85;;
14688;SDS011;7432;48.728;9.154;2023-06-22T02:27:08;13.65;;;12.25;;
14688;SDS011;7432;48.728;9.154;2023-06-22T02:29:35;12.13;;;11.05;;
14688;SDS011;7432;48.728;9.154;2023-06-22T02:32:02;13.68;;;12.38;;
14688;SDS011;7432;48.728;9.154;2023-06-22T02:34:30;12.88;;;11.70;;
14688;SDS011;7432;48.728;9.154;2023-06-22T02:36:57;17.13;;;12.80;;
14688;SDS011;7432;48.728;9.154;2023-06-22T02:39:27;14.48;;;13.10;;
14688;SDS011;7432;48.728;9.154;2023-06-22T02:41:54;12.60;;;11.40;;
14688;SDS011;7432;48.728;9.154;2023-06-22T02:44:20;14.13;;;11.70;;
14688;SDS011;7432;48.728;9.154;2023-06-22T02:46:47;12.85;;;11.68;;
14688;SDS011;7432;48.728;9.154;2023-06-22T02:49:14;13.00;;;11.63;;
14688;SDS011;7432;48.728;9.154;2023-06-22T02:51:42;13.43;;;12.05;;
14688;SDS011;7432;48.728;9.154;2023-06-22T02:54:11;13.50;;;12.32;;
14688;SDS011;7432;48.728;9.154;2023-06-22T02:56:39;12.70;;;11.60;;
14688;SDS011;7432;48.728;9.154;2023-06-22T02:59:08;13.52;;;12.25;;
14688;SDS011;7432;48.728;9.154;2023-06-22T03:01:36;13.07;;;11.77;;
14688;SDS011;7432;48.728;9.154;2023-06-22T03:04:04;13.38;;;12.27;;
14688;SDS011;7432;48.728;9.154;2023-06-22T03:06:31;12.77;;;11.57;;
14688;SDS011;7432;48.728;9.154;2023-06-22T03:08:58;11.93;;;10.90;;
14688;SDS011;7432;48.728;9.154;2023-06-22T03:11:26;12.65;;;11.50;;
14688;SDS011;7432;48.728;9.154;2023-06-22T03:13:54;12.77;;;11.73;;
14688;SDS011;7432;48.728;9.154;2023-06-22T03:16:20;12.33;;;11.23;;
14688;SDS011;7432;48.728;9.154;2023-06-22T03:18:46;12.40;;;11.25;;
14688;SDS011;7432;48.728;9.154;2023-06-22T03:21:13;11.93;;;10.93;;
14688;SDS011;7432;48.728;9.154;2023-06-22T03:23:40;13.07;;;11.77;;
14688;SDS011;7432;48.728;9.154;2023-06-22T03:26:06;13.15;;;11.95;;
14688;SDS011;7432;48.728;9.154;2023-06-22T03:28:34;13.45;;;12.25;;
14688;SDS011;7432;48.728;9.154;2023-06-22T03:31:02;14.23;;;12.80;;
14688;SDS011;7432;48.728;9.154;2023-06-22T03:33:29;13.85;;;12.55;;
14688;SDS011;7432;48.728;9.154;2023-06-22T03:35:55;13.43;;;12.13;;
14688;SDS011;7432;48.728;9.154;2023-06-22T03:38:22;14.17;;;12.77;;
14688;SDS011;7432;48.728;9.154;2023-06-22T03:40:48;13.10;;;12.00;;
14688;SDS011;7432;48.728;9.154;2023-06-22T03:43:14;13.50;;;12.30;;
14688;SDS011;7432;48.728;9.154;2023-06-22T03:45:41;14.70;;;13.27;;
14688;SDS011;7432;48.728;9.154;2023-06-22T03:48:11;14.40;;;13.00;;
14688;SDS011;7432;48.728;9.154;2023-06-22T03:50:38;14.93;;;13.63;;
14688;SDS011;7432;48.728;9.154;2023-06-22T03:53:04;15.03;;;13.50;;
14688;SDS011;7432;48.728;9.154;2023-06-22T03:55:31;13.97;;;12.67;;
14688;SDS011;7432;48.728;9.154;2023-06-22T03:57:57;13.60;;;12.50;;
14688;SDS011;7432;48.728;9.154;2023-06-22T04:00:30;15.02;;;13.48;;
14688;SDS011;7432;48.728;9.154;2023-06-22T04:02:56;13.80;;;12.57;;
14688;SDS011;7432;48.728;9.154;2023-06-22T04:05:24;13.45;;;12.27;;
14688;SDS011;7432;48.728;9.154;2023-06-22T04:07:51;13.95;;;12.65;;
14688;SDS011;7432;48.728;9.154;2023-06-22T04:10:17;13.25;;;12.15;;
14688;SDS011;7432;48.728;9.154;2023-06-22T04:12:43;13.70;;;12.50;;
14688;SDS011;7432;48.728;9.154;2023-06-22T04:15:10;14.00;;;12.77;;
14688;SDS011;7432;48.728;9.154;2023-06-22T04:17:37;14.23;;;12.93;;
14688;SDS011;7432;48.728;9.154;2023-06-22T04:20:03;14.27;;;12.93;;
14688;SDS011;7432;48.728;9.154;2023-06-22T04:22:32;13.60;;;12.30;;
14688;SDS011;7432;48.728;9.154;2023-06-22T04:24:59;13.73;;;12.35;;
14688;SDS011;7432;48.728;9.154;2023-06-22T04:27:25;13.00;;;12.00;;
14688;SDS011;7432;48.728;9.154;2023-06-22T04:29:51;13.75;;;12.52;;
14688;SDS011;7432;48.728;9.154;2023-06-22T04:32:18;12.73;;;11.52;;
14688;SDS011;7432;48.728;9.154;2023-06-22T04:34:44;13.05;;;11.95;;
14688;SDS011;7432;48.728;9.154;2023-06-22T04:37:10;13.25;;;12.05;;
14688;SDS011;7432;48.728;9.154;2023-06-22T04:39:41;11.95;;;10.85;;
14688;SDS011;7432;48.728;9.154;2023-06-22T04:42:08;12.00;;;10.93;;
14688;SDS011;7432;48.728;9.154;2023-06-22T04:44:34;11.20;;;10.18;;
14688;SDS011;7432;48.728;9.154;2023-06-22T04:47:01;12.93;;;11.82;;
14688;SDS011;7432;48.728;9.154;2023-06-22T04:49:29;12.07;;;10.98;;
14688;SDS011;7432;48.728;9.154;2023-06-22T04:51:58;11.25;;;10.32;;
14688;SDS011;7432;48.728;9.154;2023-06-22T04:54:25;11.63;;;10.60;;
14688;SDS011;7432;48.728;9.154;2023-06-22T04:56:53;11.25;;;10.43;;
14688;SDS011;7432;48.728;9.154;2023-06-22T04:59:21;13.45;;;12.32;;
14688;SDS011;7432;48.728;9.154;2023-06-22T05:01:53;12.80;;;11.60;;
14688;SDS011;7432;48.728;9.154;2023-06-22T05:04:19;11.95;;;10.93;;
14688;SDS011;7432;48.728;9.154;2023-06-22T05:06:46;13.98;;;12.80;;
14688;SDS011;7432;48.728;9.154;2023-06-22T05:09:12;12.60;;;11.27;;
14688;SDS011;7432;48.728;9.154;2023-06-22T05:11:39;13.30;;;12.02;;
14688;SDS011;7432;48.728;9.154;2023-06-22T05:14:06;16.15;;;11.82;;
14688;SDS011;7432;48.728;9.154;2023-06-22T05:16:33;12.60;;;11.40;;
14688;SDS011;7432;48.728;9.154;2023-06-22T05:18:59;12.15;;;11.15;;
14688;SDS011;7432;48.728;9.154;2023-06-22T05:21:28;12.68;;;11.52;;
14688;SDS011;7432;48.728;9.154;2023-06-22T05:23:56;13.38;;;12.18;;
14688;SDS011;7432;48.728;9.154;2023-06-22T05:26:25;11.57;;;10.57;;
14688;SDS011;7432;48.728;9.154;2023-06-22T05:28:52;13.00;;;11.70;;
14688;SDS011;7432;48.728;9.154;2023-06-22T05:31:20;13.35;;;12.18;;
14688;SDS011;7432;48.728;9.154;2023-06-22T05:33:47;12.38;;;11.32;;
14688;SDS011;7432;48.728;9.154;2023-06-22T05:36:15;13.07;;;11.77;;
14688;SDS011;7432;48.728;9.154;2023-06-22T05:38:41;12.50;;;11.32;;
14688;SDS011;7432;48.728;9.154;2023-06-22T05:41:08;11.75;;;10.38;;
14688;SDS011;7432;48.728;9.154;2023-06-22T05:43:34;11.52;;;10.60;;
14688;SDS011;7432;48.728;9.154;2023-06-22T05:46:01;12.48;;;11.32;;
14688;SDS011;7432;48.728;9.154;2023-06-22T05:48:29;13.20;;;11.43;;
14688;SDS011;7432;48.728;9.154;2023-06-22T05:50:55;12.52;;;11.48;;
14688;SDS011;7432;48.728;9.154;2023-06-22T05:53:22;12.05;;;11.13;;
14688;SDS011;7432;48.728;9.154;2023-06-22T05:55:49;11.52;;;10.52;;
14688;SDS011;7432;48.728;9.154;2023-06-22T05:58:15;13.27;;;12.05;;
14688;SDS011;7432;48.728;9.154;2023-06-22T06:00:42;13.23;;;12.13;;
14688;SDS011;7432;48.728;9.154;2023-06-22T06:03:09;12.63;;;11.63;;
14688;SDS011;7432;48.728;9.154;2023-06-22T06:05:37;12.30;;;11.38;;
14688;SDS011;7432;48.728;9.154;2023-06-22T06:08:04;11.02;;;10.10;;
14688;SDS011;7432;48.728;9.154;2023-06-22T06:10:32;13.73;;;12.52;;
14688;SDS011;7432;48.728;9.154;2023-06-22T06:12:59;13.65;;;12.55;;
14688;SDS011;7432;48.728;9.154;2023-06-22T06:15:27;13.50;;;12.40;;
14688;SDS011;7432;48.728;9.154;2023-06-22T06:17:53;13.48;;;12.35;;
14688;SDS011;7432;48.728;9.154;2023-06-22T06:20:21;12.80;;;11.80;;
14688;SDS011;7432;48.728;9.154;2023-06-22T06:22:49;13.88;;;12.68;;
14688;SDS011;7432;48.728;9.154;2023-06-22T06:25:16;14.80;;;13.40;;
14688;SDS011;7432;48.728;9.154;2023-06-22T06:27:45;14.25;;;13.15;;
14688;SDS011;7432;48.728;9.154;2023-06-22T06:30:12;14.45;;;13.27;;
14688;SDS011;7432;48.728;9.154;2023-06-22T06:32:41;14.15;;;12.90;;
14688;SDS011;7432;48.728;9.154;2023-06-22T06:35:09;14.85;;;13.68;;
14688;SDS011;7432;48.728;9.154;2023-06-22T06:37:36;15.35;;;14.05;;
14688;SDS011;7432;48.728;9.154;2023-06-22T06:40:06;14.30;;;13.30;;
14688;SDS011;7432;48.728;9.154;2023-06-22T06:42:35;14.32;;;13.35;;
14688;SDS011;7432;48.728;9.154;2023-06-22T06:45:03;13.85;;;12.85;;
14688;SDS011;7432;48.728;9.154;2023-06-22T06:47:30;14.05;;;13.05;;
14688;SDS011;7432;48.728;9.154;2023-06-22T06:49:56;14.07;;;12.98;;
14688;SDS011;7432;48.728;9.154;2023-06-22T06:52:22;14.07;;;12.98;;
14688;SDS011;7432;48.728;9.154;2023-06-22T06:54:49;14.07;;;13.05;;
14688;SDS011;7432;48.728;9.154;2023-06-22T06:57:18;14.40;;;13.30;;
14688;SDS011;7432;48.728;9.154;2023-06-22T06:59:45;14.20;;;13.10;;
14688;SDS011;7432;48.728;9.154;2023-06-22T07:02:11;13.85;;;12.73;;
14688;SDS011;7432;48.728;9.154;2023-06-22T07:04:39;14.57;;;13.57;;
14688;SDS011;7432;48.728;9.154;2023-06-22T07:07:06;15.15;;;13.82;;
14688;SDS011;7432;48.728;9.154;2023-06-22T07:09:32;14.05;;;12.95;;
14688;SDS011;7432;48.728;9.154;2023-06-22T07:11:59;14.35;;;13.35;;
14688;SDS011;7432;48.728;9.154;2023-06-22T07:14:26;14.05;;;12.90;;
14688;SDS011;7432;48.728;9.154;2023-06-22T07:16:53;13.45;;;12.55;;
14688;SDS011;7432;48.728;9.154;2023-06-22T07:19:24;15.32;;;14.02;;
14688;SDS011;7432;48.728;9.154;2023-06-22T07:21:51;14.88;;;13.63;;
14688;SDS011;7432;48.728;9.154;2023-06-22T07:24:18;14.55;;;13.30;;
14688;SDS011;7432;48.728;9.154;2023-06-22T07:26:45;14.90;;;13.77;;
14688;SDS011;7432;48.728;9.154;2023-06-22T07:29:13;13.45;;;12.48;;
14688;SDS011;7432;48.728;9.154;2023-06-22T07:31:41;14.23;;;13.13;;
14688;SDS011;7432;48.728;9.154;2023-06-22T07:34:07;13.57;;;12.57;;
14688;SDS011;7432;48.728;9.154;2023-06-22T07:36:33;13.77;;;12.65;;
14688;SDS011;7432;48.728;9.154;2023-06-22T07:39:00;14.00;;;12.93;;
14688;SDS011;7432;48.728;9.154;2023-06-22T07:41:27;13.75;;;12.52;;
14688;SDS011;7432;48.728;9.154;2023-06-22T07:43:54;14.32;;;13.23;;
14688;SDS011;7432;48.728;9.154;2023-06-22T07:46:20;14.68;;;13.35;;
14688;SDS011;7432;48.728;9.154;2023-06-22T07:48:48;14.43;;;13.38;;
14688;SDS011;7432;48.728;9.154;2023-06-22T07:51:14;14.45;;;13.35;;
14688;SDS011;7432;48.728;9.154;2023-06-22T07:53:41;13.30;;;12.38;;
14688;SDS011;7432;48.728;9.154;2023-06-22T07:56:09;14.43;;;13.23;;
14688;SDS011;7432;48.728;9.154;2023-06-22T07:58:36;14.10;;;13.10;;
14688;SDS011;7432;48.728;9.154;2023-06-22T08:01:02;13.80;;;12.70;;
14688;SDS011;7432;48.728;9.154;2023-06-22T08:03:29;14.93;;;13.68;;
14688;SDS011;7432;48.728;9.154;2023-06-22T08:05:56;14.77;;;13.60;;
14688;SDS011;7432;48.728;9.154;2023-06-22T08:08:23;14.80;;;13.48;;
14688;SDS011;7432;48.728;9.154;2023-06-22T08:10:49;14.93;;;13.55;;
14688;SDS011;7432;48.728;9.154;2023-06-22T08:13:16;14.07;;;12.98;;
14688;SDS011;7432;48.728;9.154;2023-06-22T08:15:42;14.10;;;13.00;;
14688;SDS011;7432;48.728;9.154;2023-06-22T08:18:09;14.75;;;13.73;;
14688;SDS011;7432;48.728;9.154;2023-06-22T08:20:35;14.88;;;13.68;;
14688;SDS011;7432;48.728;9.154;2023-06-22T08:23:03;14.23;;;13.23;;
14688;SDS011;7432;48.728;9.154;2023-06-22T08:25:31;14.43;;;13.32;;
14688;SDS011;7432;48.728;9.154;2023-06-22T08:27:57;14.23;;;13.23;;
14688;SDS011;7432;48.728;9.154;2023-06-22T08:30:24;15.13;;;13.80;;
14688;SDS011;7432;48.728;9.154;2023-06-22T08:32:50;15.18;;;13.93;;
14688;SDS011;7432;48.728;9.154;2023-06-22T08:35:17;14.27;;;13.35;;
14688;SDS011;7432;48.728;9.154;2023-06-22T08:37:43;15.10;;;13.50;;
14688;SDS011;7432;48.728;9.154;2023-06-22T08:40:17;14.25;;;13.05;;
14688;SDS011;7432;48.728;9.154;2023-06-22T08:42:44;15.70;;;14.20;;
14688;SDS011;7432;48.728;9.154;2023-06-22T08:45:11;14.15;;;12.95;;
14688;SDS011;7432;48.728;9.154;2023-06-22T08:47:38;14.68;;;13.38;;
14688;SDS011;7432;48.728;9.154;2023-06-22T08:50:06;13.80;;;12.70;;
14688;SDS011;7432;48.728;9.154;2023-06-22T08:52:33;14.90;;;13.55;;
14688;SDS011;7432;48.728;9.154;2023-06-22T08:55:00;14.88;;;13.48;;
14688;SDS011;7432;48.728;9.154;2023-06-22T08:57:28;14.70;;;13.48;;
14688;SDS011;7432;48.728;9.154;2023-06-22T08:59:55;14.48;;;13.35;;
14688;SDS011;7432;48.728;9.154;2023-06-22T09:02:23;14.73;;;13.52;;
14688;SDS011;7432;48.728;9.154;2023-06-22T09:04:49;13.90;;;12.90;;
14688;SDS011;7432;48.728;9.154;2023-06-22T09:07:20;13.65;;;12.60;;
14688;SDS011;7432;48.728;9.154;2023-06-22T09:09:48;14.23;;;13.13;;
14688;SDS011;7432;48.728;9.154;2023-06-22T09:12:15;14.50;;;13.23;;
14688;SDS011;7432;48.728;9.154;2023-06-22T09:14:42;14.25;;;13.10;;
14688;SDS011;7432;48.728;9.154;2023-06-22T09:17:09;14.73;;;13.30;;
14688;SDS011;7432;48.728;9.154;2023-06-22T09:19:35;15.20;;;13.88;;
14688;SDS011;7432;48.728;9.154;2023-06-22T09:22:02;14.95;;;13.45;;
14688;SDS011;7432;48.728;9.154;2023-06-22T09:24:28;15.63;;;14.23;;
14688;SDS011;7432;48.728;9.154;2023-06-22T09:26:54;14.35;;;12.93;;
14688;SDS011;7432;48.728;9.154;2023-06-22T09:29:21;14.65;;;13.45;;
14688;SDS011;7432;48.728;9.154;2023-06-22T09:31:48;14.88;;;13.57;;
14688;SDS011;7432;48.728;9.154;2023-06-22T09:34:15;14.75;;;13.50;;
14688;SDS011;7432;48.728;9.154;2023-06-22T09:36:45;14.90;;;13.70;;
14688;SDS011;7432;48.728;9.154;2023-06-22T09:39:11;14.98;;;13.80;;
14688;SDS011;7432;48.728;9.154;2023-06-22T09:41:38;14.65;;;13.27;;
14688;SDS011;7432;48.728;9.154;2023-06-22T09:44:04;14.70;;;13.50;;
14688;SDS011;7432;48.728;9.154;2023-06-22T09:46:30;15.43;;;14.23;;
14688;SDS011;7432;48.728;9.154;2023-06-22T09:48:58;14.65;;;13.30;;
14688;SDS011;7432;48.728;9.154;2023-06-22T09:51:25;15.60;;;14.10;;
14688;SDS011;7432;48.728;9.154;2023-06-22T09:53:51;16.33;;;14.77;;
14688;SDS011;7432;48.728;9.154;2023-06-22T09:56:18;15.10;;;13.88;;
14688;SDS011;7432;48.728;9.154;2023-06-22T09:58:46;15.98;;;14.48;;
14688;SDS011;7432;48.728;9.154;2023-06-22T10:01:15;14.55;;;13.55;;
14688;SDS011;7432;48.728;9.154;2023-06-22T10:03:42;14.70;;;13.57;;
14688;SDS011;7432;48.728;9.154;2023-06-22T10:06:09;15.93;;;14.68;;
14688;SDS011;7432;48.728;9.154;2023-06-22T10:08:36;16.23;;;14.60;;
14688;SDS011;7432;48.728;9.154;2023-06-22T10:11:02;16.17;;;14.77;;
14688;SDS011;7432;48.728;9.154;2023-06-22T10:13:29;16.83;;;15.05;;
14688;SDS011;7432;48.728;9.154;2023-06-22T10:15:55;15.98;;;14.75;;
14688;SDS011;7432;48.728;9.154;2023-06-22T10:18:22;16.15;;;14.70;;
14688;SDS011;7432;48.728;9.154;2023-06-22T10:20:48;17.20;;;15.43;;
14688;SDS011;7432;48.728;9.154;2023-06-22T10:23:18;16.38;;;15.10;;
14688;SDS011;7432;48.728;9.154;2023-06-22T10:25:45;17.15;;;15.65;;
14688;SDS011;7432;48.728;9.154;2023-06-22T10:28:11;15.80;;;14.50;;
14688;SDS011;7432;48.728;9.154;2023-06-22T10:30:38;17.05;;;15.27;;
14688;SDS011;7432;48.728;9.154;2023-06-22T10:33:06;16.30;;;14.95;;
14688;SDS011;7432;48.728;9.154;2023-06-22T10:35:32;15.57;;;13.98;;
14688;SDS011;7432;48.728;9.154;2023-06-22T10:37:59;15.60;;;14.35;;
14688;SDS011;7432;48.728;9.154;2023-06-22T10:40:27;15.68;;;14.27;;
14688;SDS011;7432;48.728;9.154;2023-06-22T10:42:53;16.30;;;14.80;;
14688;SDS011;7432;48.728;9.154;2023-06-22T10:45:19;15.90;;;14.48;;
14688;SDS011;7432;48.728;9.154;2023-06-22T10:47:46;16.25;;;14.80;;
14688;SDS011;7432;48.728;9.154;2023-06-22T10:50:12;16.73;;;15.00;;
14688;SDS011;7432;48.728;9.154;2023-06-22T10:52:39;15.90;;;14.63;;
14688;SDS011;7432;48.728;9.154;2023-06-22T10:55:06;16.98;;;15.55;;
14688;SDS011;7432;48.728;9.154;2023-06-22T10:57:34;16.10;;;14.80;;
14688;SDS011;7432;48.728;9.154;2023-06-22T11:00:01;16.17;;;14.70;;
14688;SDS011;7432;48.728;9.154;2023-06-22T11:02:30;15.73;;;14.23;;
14688;SDS011;7432;48.728;9.154;2023-06-22T11:04:57;15.80;;;14.60;;
14688;SDS011;7432;48.728;9.154;2023-06-22T11:07:25;19.77;;;15.68;;
14688;SDS011;7432;48.728;9.154;2023-06-22T11:09:52;16.38;;;15.13;;
14688;SDS011;7432;48.728;9.154;2023-06-22T11:12:19;15.70;;;14.30;;
14688;SDS011;7432;48.728;9.154;2023-06-22T11:14:46;16.45;;;14.77;;
14688;SDS011;7432;48.728;9.154;2023-06-22T11:17:15;17.05;;;15.38;;
14688;SDS011;7432;48.728;9.154;2023-06-22T11:19:41;17.52;;;15.20;;
14688;SDS011;7432;48.728;9.154;2023-06-22T11:22:07;15.85;;;14.30;;
14688;SDS011;7432;48.728;9.154;2023-06-22T11:24:34;17.00;;;15.30;;
14688;SDS011;7432;48.728;9.154;2023-06-22T11:27:00;17.05;;;15.32;;
14688;SDS011;7432;48.728;9.154;2023-06-22T11:29:27;16.85;;;15.30;;
14688;SDS011;7432;48.728;9.154;2023-06-22T11:31:54;16.80;;;15.30;;
14688;SDS011;7432;48.728;9.154;2023-06-22T11:34:21;16.27;;;14.82;;
14688;SDS011;7432;48.728;9.154;2023-06-22T11:36:47;16.98;;;15.43;;
14688;SDS011;7432;48.728;9.154;2023-06-22T11:39:13;15.80;;;14.57;;
14688;SDS011;7432;48.728;9.154;2023-06-22T11:41:40;16.60;;;15.00;;
14688;SDS011;7432;48.728;9.154;2023-06-22T11:44:06;16.88;;;15.05;;
14688;SDS011;7432;48.728;9.154;2023-06-22T11:46:33;16.33;;;14.77;;
14688;SDS011;7432;48.728;9.154;2023-06-22T11:49:01;16.48;;;14.30;;
14688;SDS011;7432;48.728;9.154;2023-06-22T11:51:27;16.05;;;14.48;;
14688;SDS011;7432;48.728;9.154;2023-06-22T11:53:56;15.52;;;14.25;;
14688;SDS011;7432;48.728;9.154;2023-06-22T11:56:22;17.08;;;15.15;;
14688;SDS011;7432;48.728;9.154;2023-06-22T11:58:49;16.13;;;14.48;;
14688;SDS011;7432;48.728;9.154;2023-06-22T12:01:15;15.40;;;13.85;;
14688;SDS011;7432;48.728;9.154;2023-06-22T12:03:41;20.70;;;14.60;;
14688;SDS011;7432;48.728;9.154;2023-06-22T12:06:10;16.77;;;14.25;;
14688;SDS011;7432;48.728;9.154;2023-06-22T12:08:37;16.23;;;14.73;;
14688;SDS011;7432;48.728;9.154;2023-06-22T12:11:03;16.08;;;14.40;;
14688;SDS011;7432;48.728;9.154;2023-06-22T12:13:29;16.77;;;14.60;;
14688;SDS011;7432;48.728;9.154;2023-06-22T12:15:56;15.10;;;13.85;;
14688;SDS011;7432;48.728;9.154;2023-06-22T12:18:22;16.92;;;15.20;;
14688;SDS011;7432;48.728;9.154;2023-06-22T12:20:49;15.85;;;14.52;;
14688;SDS011;7432;48.728;9.154;2023-06-22T12:23:17;15.32;;;13.80;;
14688;SDS011;7432;48.728;9.154;2023-06-22T12:25:44;16.50;;;14.52;;
14688;SDS011;7432;48.728;9.154;2023-06-22T12:28:11;16.75;;;14.90;;
14688;SDS011;7432;48.728;9.154;2023-06-22T12:30:38;14.13;;;12.80;;
14688;SDS011;7432;48.728;9.154;2023-06-22T12:33:04;16.33;;;14.60;;
14688;SDS011;7432;48.728;9.154;2023-06-22T12:35:30;16.25;;;14.75;;
14688;SDS011;7432;48.728;9.154;2023-06-22T12:37:57;16.83;;;15.10;;
14688;SDS011;7432;48.728;9.154;2023-06-22T12:40:24;15.77;;;14.32;;
14688;SDS011;7432;48.728;9.154;2023-06-22T12:42:51;16.15;;;14.52;;
14688;SDS011;7432;48.728;9.154;2023-06-22T12:45:17;16.13;;;14.50;;
14688;SDS011;7432;48.728;9.154;2023-06-22T12:47:46;15.95;;;14.48;;
14688;SDS011;7432;48.728;9.154;2023-06-22T12:50:15;15.45;;;14.15;;
14688;SDS011;7432;48.728;9.154;2023-06-22T12:52:41;18.10;;;14.00;;
14688;SDS011;7432;48.728;9.154;2023-06-22T12:55:08;16.85;;;15.23;;
14688;SDS011;7432;48.728;9.154;2023-06-22T12:57:36;16.80;;;15.10;;
14688;SDS011;7432;48.728;9.154;2023-06-22T13:00:02;15.98;;;14.50;;
14688;SDS011;7432;48.728;9.154;2023-06-22T13:02:30;15.82;;;14.43;;
14688;SDS011;7432;48.728;9.154;2023-06-22T13:04:56;16.17;;;14.55;;
14688;SDS011;7432;48.728;9.154;2023-06-22T13:07:23;15.75;;;14.43;;
14688;SDS011;7432;48.728;9.154;2023-06-22T13:09:49;16.50;;;14.73;;
14688;SDS011;7432;48.728;9.154;2023-06-22T13:12:16;15.82;;;14.30;;
14688;SDS011;7432;48.728;9.154;2023-06-22T13:14:44;15.43;;;13.65;;
14688;SDS011;7432;48.728;9.154;2023-06-22T13:17:11;15.68;;;14.25;;
14688;SDS011;7432;48.728;9.154;2023-06-22T13:19:39;15.27;;;13.90;;
14688;SDS011;7432;48.728;9.154;2023-06-22T13:22:05;14.55;;;13.45;;
14688;SDS011;7432;48.728;9.154;2023-06-22T13:24:51;14.75;;;13.40;;
14688;SDS011;7432;48.728;9.154;2023-06-22T13:27:17;16.10;;;14.48;;
14688;SDS011;7432;48.728;9.154;2023-06-22T13:29:45;15.13;;;13.73;;
14688;SDS011;7432;48.728;9.154;2023-06-22T13:32:11;15.15;;;13.68;;
14688;SDS011;7432;48.728;9.154;2023-06-22T13:34:38;15.82;;;14.52;;
14688;SDS011;7432;48.728;9.154;2023-06-22T13:37:04;14.23;;;12.98;;
14688;SDS011;7432;48.728;9.154;2023-06-22T13:39:31;15.60;;;14.27;;
14688;SDS011;7432;48.728;9.154;2023-06-22T13:41:57;14.20;;;13.10;;
14688;SDS011;7432;48.728;9.154;2023-06-22T13:44:24;14.07;;;12.93;;
14688;SDS011;7432;48.728;9.154;2023-06-22T13:46:55;15.23;;;13.63;;
14688;SDS011;7432;48.728;9.154;2023-06-22T13:49:21;14.77;;;13.20;;
14688;SDS011;7432;48.728;9.154;2023-06-22T13:51:48;15.82;;;13.18;;
14688;SDS011;7432;48.728;9.154;2023-06-22T13:54:15;13.82;;;12.50;;
14688;SDS011;7432;48.728;9.154;2023-06-22T13:56:42;15.02;;;13.50;;
14688;SDS011;7432;48.728;9.154;2023-06-22T13:59:08;14.68;;;13.50;;
14688;SDS011;7432;48.728;9.154;2023-06-22T14:01:35;17.45;;;14.23;;
14688;SDS011;7432;48.728;9.154;2023-06-22T14:04:03;15.05;;;13.52;;
14688;SDS011;7432;48.728;9.154;2023-06-22T14:06:29;15.38;;;13.95;;
14688;SDS011;7432;48.728;9.154;2023-06-22T14:08:56;14.52;;;13.23;;
14688;SDS011;7432;48.728;9.154;2023-06-22T14:11:22;18.58;;;14.35;;
14688;SDS011;7432;48.728;9.154;2023-06-22T14:13:48;15.00;;;12.98;;
14688;SDS011;7432;48.728;9.154;2023-06-22T14:16:15;16.45;;;13.45;;
14688;SDS011;7432;48.728;9.154;2023-06-22T14:18:41;14.25;;;12.85;;
14688;SDS011;7432;48.728;9.154;2023-06-22T14:21:09;16.05;;;12.85;;
14688;SDS011;7432;48.728;9.154;2023-06-22T14:23:35;14.43;;;13.02;;
14688;SDS011;7432;48.728;9.154;2023-06-22T14:26:02;14.88;;;13.07;;
14688;SDS011;7432;48.728;9.154;2023-06-22T14:28:28;14.30;;;12.75;;
14688;SDS011;7432;48.728;9.154;2023-06-22T14:30:55;14.40;;;12.95;;
14688;SDS011;7432;48.728;9.154;2023-06-22T14:33:22;16.92;;;13.52;;
14688;SDS011;7432;48.728;9.154;2023-06-22T14:35:48;14.30;;;12.93;;